Time;durP1;ratioP1;P1;durP2;ratioP2;P2;SDS_P1;SDS_P2;PMS_P1;PMS_P2;Temp;Humidity;BMP_temperature;BMP_pressure;BME280_temperature;BME280_humidity;BME280_pressure;Samples;Min_cycle;Max_cycle;Signal;HPM_P1;HPM_P2
2023/10/02 00:01:54;;;;;;;21.45;16.02;;;;;;;-144.30;62.95;84752.41;5053700;28;20205;-64
2023/10/02 00:04:24;;;;;;;16.95;14.82;;;;;;;-144.30;63.02;84591.41;5053780;28;20205;-66
2023/10/02 00:07:05;;;;;;;17.02;14.85;;;;;;;-144.30;63.24;84798.13;5053618;28;20207;-66
2023/10/02 00:09:33;;;;;;;20.98;15.52;;;;;;;-144.30;63.42;84776.25;5053492;28;20207;-66
2023/10/02 00:12:01;;;;;;;18.52;14.70;;;;;;;-144.30;63.63;84812.03;5053438;28;20737;-65
2023/10/02 00:14:35;;;;;;;17.25;15.30;;;;;;;-144.30;63.59;84819.97;5053606;28;20204;-64
2023/10/02 00:17:07;;;;;;;16.60;14.88;;;;;;;-144.30;63.55;84812.03;5053259;28;20245;-64
2023/10/02 00:19:39;;;;;;;23.50;16.15;;;;;;;-144.30;63.56;84808.06;5053380;28;20222;-64
2023/10/02 00:22:08;;;;;;;17.70;15.80;;;;;;;-144.30;63.48;84814.00;5053479;28;20596;-64
2023/10/02 00:24:37;;;;;;;17.98;15.23;;;;;;;-144.30;63.65;84770.28;5053166;28;20196;-64
2023/10/02 00:27:04;;;;;;;17.23;15.38;;;;;;;-144.30;63.77;84816.00;5053321;28;20200;-64
2023/10/02 00:29:32;;;;;;;16.92;15.05;;;;;;;-144.30;63.70;84788.19;5053331;28;20204;-64
2023/10/02 00:32:00;;;;;;;17.77;15.95;;;;;;;-144.30;63.87;84816.00;5053026;28;20225;-64
2023/10/02 00:34:36;;;;;;;18.00;14.80;;;;;;;-144.30;63.85;84843.84;5053096;28;20205;-64
2023/10/02 00:37:08;;;;;;;17.58;15.25;;;;;;;-144.30;63.93;84859.72;5053025;28;20212;-64
2023/10/02 00:39:36;;;;;;;26.38;16.02;;;;;;;-144.30;63.84;84790.16;5052907;28;20197;-64
2023/10/02 00:44:56;;;;;;;19.35;15.95;;;;;;;-144.30;64.03;84812.03;5052929;28;20196;-64
2023/10/02 00:47:45;;;;;;;19.70;14.75;;;;;;;-144.30;63.81;84808.06;5052863;28;20196;-64
2023/10/02 00:50:17;;;;;;;18.70;15.10;;;;;;;-144.30;63.97;84853.78;5052689;28;20205;-64
2023/10/02 00:52:48;;;;;;;17.65;15.25;;;;;;;-144.30;63.90;84831.91;5053125;28;20705;-64
2023/10/02 00:55:17;;;;;;;22.30;14.68;;;;;;;-144.30;63.94;84819.97;5052129;28;20279;-64
2023/10/02 00:57:45;;;;;;;18.77;15.52;;;;;;;-144.30;64.11;84839.84;5052550;28;20298;-64
2023/10/02 01:00:20;;;;;;;21.15;15.85;;;;;;;-144.30;63.88;84712.66;5052998;28;20655;-64
2023/10/02 01:02:48;;;;;;;20.67;15.45;;;;;;;-144.30;64.06;84831.91;5052571;28;20231;-64
2023/10/02 01:05:22;;;;;;;21.40;14.98;;;;;;;-144.30;64.01;84851.78;5052896;28;20200;-64
2023/10/02 01:07:54;;;;;;;17.52;15.55;;;;;;;-144.30;64.01;84857.75;5052517;28;20207;-64
2023/10/02 01:10:23;;;;;;;18.08;16.17;;;;;;;-144.30;63.89;84825.94;5052362;28;20207;-64
2023/10/02 01:12:53;;;;;;;16.30;14.63;;;;;;;-144.30;63.95;84845.81;5052297;28;20287;-62
2023/10/02 01:15:26;;;;;;;18.65;14.63;;;;;;;-144.30;63.74;84839.84;5052084;28;20227;-62
2023/10/02 01:17:53;;;;;;;18.10;14.90;;;;;;;-144.30;63.72;84782.22;5052086;28;20196;-62
2023/10/02 01:20:33;;;;;;;16.95;15.10;;;;;;;-144.30;63.75;84841.84;5052008;28;20201;-63
2023/10/02 01:23:16;;;;;;;18.88;15.38;;;;;;;-144.30;63.66;84845.81;5051882;28;20442;-62
2023/10/02 01:25:45;;;;;;;17.58;14.98;;;;;;;-144.30;63.72;84819.97;5051916;28;20676;-62
2023/10/02 01:28:13;;;;;;;17.67;15.38;;;;;;;-144.30;63.70;84823.94;5052099;28;20200;-64
2023/10/02 01:30:46;;;;;;;17.88;15.45;;;;;;;-144.30;63.89;84857.75;5052101;28;20262;-65
2023/10/02 01:33:14;;;;;;;16.90;14.70;;;;;;;-144.30;64.08;84877.63;5052121;28;20257;-64
2023/10/02 01:35:48;;;;;;;17.65;15.82;;;;;;;-144.30;64.16;84861.72;5051355;28;20215;-64
2023/10/02 01:38:18;;;;;;;20.70;16.27;;;;;;;-144.30;63.99;84863.72;5051747;28;20668;-63
2023/10/02 01:40:49;;;;;;;17.30;15.23;;;;;;;-144.30;64.23;84728.56;5051576;28;20228;-62
2023/10/02 01:43:27;;;;;;;17.90;16.02;;;;;;;-144.30;64.27;84839.84;5051558;28;20262;-63
2023/10/02 01:45:56;;;;;;;20.15;17.08;;;;;;;-144.30;64.39;84903.47;5051510;28;20220;-64
2023/10/02 01:48:37;;;;;;;16.73;14.80;;;;;;;-144.30;64.12;84859.72;5051625;28;20196;-62
2023/10/02 01:51:20;;;;;;;18.55;15.48;;;;;;;-144.30;64.29;84863.72;5051454;28;20270;-62
2023/10/02 01:53:48;;;;;;;20.30;16.27;;;;;;;-144.30;64.35;84845.81;5051272;28;20239;-62
2023/10/02 01:56:17;;;;;;;16.92;15.23;;;;;;;-144.30;64.53;84873.66;5051091;28;20192;-61
2023/10/02 01:58:45;;;;;;;20.38;15.32;;;;;;;-144.30;64.35;84855.75;5051545;28;20649;-63
2023/10/02 02:01:12;;;;;;;16.88;15.05;;;;;;;-144.30;64.27;84859.72;5051321;28;20192;-63
2023/10/02 02:03:41;;;;;;;19.58;14.80;;;;;;;-144.30;64.14;84855.75;5051088;28;20315;-62
2023/10/02 02:06:11;;;;;;;17.23;15.25;;;;;;;-144.30;64.31;84891.53;5050426;28;20247;-63
2023/10/02 02:08:43;;;;;;;20.35;16.60;;;;;;;-144.30;64.53;84796.13;5050878;28;20232;-62
2023/10/02 02:11:18;;;;;;;22.73;15.88;;;;;;;-144.30;64.50;84895.50;5051253;28;20284;-62
2023/10/02 02:13:48;;;;;;;17.23;15.30;;;;;;;-144.30;64.38;84818.00;5051034;28;20188;-62
2023/10/02 02:16:16;;;;;;;19.92;16.85;;;;;;;-144.30;64.38;84718.63;5050996;28;20258;-61
2023/10/02 02:18:45;;;;;;;20.13;15.80;;;;;;;-144.30;64.28;84899.47;5051000;28;20200;-61
2023/10/02 02:21:19;;;;;;;20.67;15.23;;;;;;;-144.30;64.23;84883.59;5050858;28;20270;-63
2023/10/02 02:23:47;;;;;;;17.45;15.10;;;;;;;-144.30;64.44;84877.63;5050718;28;20270;-63
2023/10/02 02:26:21;;;;;;;18.80;16.80;;;;;;;-144.30;64.57;84877.63;5050798;28;20292;-63
2023/10/02 02:28:51;;;;;;;17.83;15.27;;;;;;;-144.30;64.33;84897.50;5050746;28;20299;-62
2023/10/02 02:31:31;;;;;;;18.95;15.90;;;;;;;-144.30;64.30;84855.75;5050882;28;20208;-63
2023/10/02 02:34:04;;;;;;;20.30;16.50;;;;;;;-144.30;64.42;84873.66;5050730;28;20203;-62
2023/10/02 02:36:35;;;;;;;18.35;15.50;;;;;;;-144.30;64.49;84911.41;5050524;28;20598;-63
2023/10/02 02:39:15;;;;;;;17.25;15.50;;;;;;;-144.30;64.57;84827.94;5050702;28;20193;-63
2023/10/02 02:41:44;;;;;;;21.65;15.30;;;;;;;-144.30;64.26;84827.94;5050475;28;20203;-62
2023/10/02 02:46:55;;;;;;;20.25;16.00;;;;;;;-144.30;64.02;84849.78;5050271;28;20205;-61
2023/10/02 02:49:23;;;;;;;21.35;15.07;;;;;;;-144.30;64.26;84875.63;5050644;28;20201;-63
2023/10/02 02:51:55;;;;;;;17.52;15.73;;;;;;;-144.30;64.17;84877.63;5050371;28;20633;-62
2023/10/02 02:54:25;;;;;;;18.05;15.82;;;;;;;-144.30;64.14;84756.38;5050431;28;20811;-65
2023/10/02 02:56:56;;;;;;;20.70;15.40;;;;;;;-144.30;63.86;84875.63;5050790;28;20200;-64
2023/10/02 02:59:27;;;;;;;23.92;15.38;;;;;;;-144.30;63.75;84867.69;5050299;28;20207;-62
2023/10/02 03:02:08;;;;;;;18.27;14.95;;;;;;;-144.30;63.68;84873.66;5050592;28;20283;-63
2023/10/02 03:04:39;;;;;;;16.70;14.68;;;;;;;-144.30;63.67;84879.59;5050081;28;20250;-63
2023/10/02 03:07:22;;;;;;;18.85;14.00;;;;;;;-144.30;63.25;84871.66;5049940;28;20585;-62
2023/10/02 03:09:49;;;;;;;15.93;14.07;;;;;;;-144.30;63.21;84867.69;5048092;28;20288;-62
2023/10/02 03:12:18;;;;;;;25.60;14.65;;;;;;;-144.30;63.09;84869.66;5050111;28;20606;-63
2023/10/02 03:14:46;;;;;;;22.20;14.60;;;;;;;-144.30;62.99;84921.34;5050071;28;20200;-65
2023/10/02 03:20:01;;;;;;;15.80;14.00;;;;;;;-144.30;63.02;84847.81;5046130;28;20201;-63
2023/10/02 03:22:33;;;;;;;18.60;14.63;;;;;;;-144.30;63.16;84897.50;5050292;28;20594;-62
2023/10/02 03:25:24;;;;;;;17.90;14.18;;;;;;;-144.30;63.11;84861.72;5049971;28;20224;-63
2023/10/02 03:27:49;;;;;;;22.42;14.50;;;;;;;-144.30;63.14;84877.63;5049597;28;20262;-62
2023/10/02 03:30:35;;;;;;;19.90;13.30;;;;;;;-144.30;63.12;84903.47;5049721;28;20265;-62
2023/10/02 03:33:03;;;;;;;14.98;13.25;;;;;;;-144.30;63.06;84847.81;5046234;28;20572;-62
2023/10/02 03:35:38;;;;;;;15.60;13.77;;;;;;;-144.30;62.85;84883.59;5049755;28;20192;-62
2023/10/02 03:38:05;;;;;;;17.92;14.30;;;;;;;-144.30;62.87;84889.53;5049748;28;20235;-62
2023/10/02 03:40:32;;;;;;;18.30;13.77;;;;;;;-144.30;62.61;84895.50;5048759;28;20295;-65
2023/10/02 03:43:18;;;;;;;14.65;13.20;;;;;;;-144.30;62.67;84917.38;5035543;28;20664;-65
2023/10/02 03:45:50;;;;;;;14.27;12.63;;;;;;;-144.30;62.74;84865.69;5040206;28;20201;-65
2023/10/02 03:48:17;;;;;;;14.50;12.57;;;;;;;-144.30;62.37;84927.31;5039098;28;20205;-65
2023/10/02 03:50:44;;;;;;;13.80;12.30;;;;;;;-144.30;62.43;84935.25;5036903;28;20205;-64
2023/10/02 03:53:28;;;;;;;19.80;13.60;;;;;;;-144.30;62.51;84895.50;5040073;28;20220;-64
2023/10/02 03:55:59;;;;;;;14.25;11.45;;;;;;;-144.30;62.24;84891.53;5038809;28;20217;-64
2023/10/02 03:58:38;;;;;;;14.30;12.15;;;;;;;-144.30;62.19;84885.56;5042122;28;20209;-65
2023/10/02 04:01:08;;;;;;;16.80;12.95;;;;;;;-144.30;62.45;84899.47;5040321;28;20210;-65
2023/10/02 04:03:52;;;;;;;12.85;11.43;;;;;;;-144.30;61.84;84941.22;5041952;28;20229;-65
2023/10/02 04:06:33;;;;;;;24.50;17.75;;;;;;;-144.30;62.22;84879.59;5032552;28;20193;-65
2023/10/02 04:09:09;;;;;;;14.85;13.23;;;;;;;-144.30;61.93;84891.53;5039096;28;20204;-64
2023/10/02 04:11:39;;;;;;;14.13;12.18;;;;;;;-144.30;61.89;84917.38;5037428;28;20669;-64
2023/10/02 04:14:17;;;;;;;15.32;11.10;;;;;;;-144.30;61.78;84939.25;5032727;28;20247;-64
2023/10/02 04:16:46;;;;;;;18.20;12.15;;;;;;;-144.30;61.84;84961.09;5042965;28;20193;-62
2023/10/02 04:19:15;;;;;;;13.10;11.68;;;;;;;-144.30;61.72;84945.19;5040074;28;20197;-63
2023/10/02 04:21:42;;;;;;;21.73;12.88;;;;;;;-144.30;61.54;84945.19;5039505;28;20669;-62
2023/10/02 04:24:10;;;;;;;16.52;13.15;;;;;;;-144.30;61.65;84947.19;5039743;28;20219;-63
2023/10/02 04:26:36;;;;;;;17.40;14.25;;;;;;;-144.30;61.35;84945.19;5038732;28;20202;-64
2023/10/02 04:29:13;;;;;;;26.80;20.27;;;;;;;-144.30;61.44;84973.03;5038139;28;20196;-64
2023/10/02 04:31:43;;;;;;;18.42;14.13;;;;;;;-144.30;61.23;84955.13;5043706;28;20754;-65
2023/10/02 04:34:24;;;;;;;26.95;15.43;;;;;;;-144.30;61.60;84818.00;5044728;28;20197;-66
2023/10/02 04:36:51;;;;;;;13.23;11.82;;;;;;;-144.30;61.59;84939.25;5042932;28;20246;-66
2023/10/02 04:42:11;;;;;;;14.27;10.95;;;;;;;-144.30;60.95;84951.16;5045638;28;20201;-61
2023/10/02 04:44:44;;;;;;;17.75;10.82;;;;;;;-144.30;60.73;84945.19;5052282;28;20227;-60
2023/10/02 04:47:18;;;;;;;14.20;10.73;;;;;;;-144.30;60.53;84921.34;5052166;28;20227;-64
2023/10/02 04:52:56;;;;;;;32.95;23.42;;;;;;;-144.30;60.39;84909.41;5009513;28;20197;-65
2023/10/02 04:55:27;;;;;;;12.73;11.38;;;;;;;-144.30;60.24;84915.38;5042207;28;20567;-61
2023/10/02 04:57:56;;;;;;;18.10;15.80;;;;;;;-144.30;59.84;84927.31;5043892;28;20213;-62
2023/10/02 05:00:33;;;;;;;18.98;15.48;;;;;;;-144.30;59.60;84867.69;5043118;28;20731;-63
2023/10/02 05:05:58;;;;;;;11.95;10.60;;;;;;;-144.30;57.74;84827.94;5032171;28;20705;-65
2023/10/02 05:08:33;;;;;;;38.78;26.33;;;;;;;-144.30;57.09;84839.84;5032612;28;20201;-65
2023/10/02 05:11:05;;;;;;;30.73;23.17;;;;;;;-144.30;56.65;84816.00;5032513;28;20205;-64
2023/10/02 05:13:59;;;;;;;14.23;11.60;;;;;;;-144.30;55.79;84810.03;5032593;28;20197;-66
2023/10/02 05:16:32;;;;;;;14.93;11.25;;;;;;;-144.30;54.88;84736.50;5032367;28;20205;-65
2023/10/02 05:18:58;;;;;;;14.50;10.25;;;;;;;-144.30;53.19;84621.22;5032183;28;20737;-64
2023/10/02 05:21:38;;;;;;;10.95;9.80;;;;;;;-144.30;50.51;84527.81;5032260;28;20285;-62
2023/10/02 05:24:05;;;;;;;20.92;13.57;;;;;;;-144.30;48.74;84372.78;5031952;28;20252;-61
2023/10/02 05:26:36;;;;;;;13.52;9.35;;;;;;;-144.30;46.30;84283.38;5034807;28;20205;-62
2023/10/02 05:29:05;;;;;;;12.45;8.20;;;;;;;-144.30;45.21;84287.34;5047216;28;20209;-64
2023/10/02 05:31:35;;;;;;;12.00;9.88;;;;;;;-144.30;44.63;84281.38;5052114;28;20569;-64
2023/10/02 05:34:07;;;;;;;13.30;10.45;;;;;;;-144.30;44.92;84299.25;5052279;28;20709;-66
2023/10/02 05:36:54;;;;;;;19.40;11.07;;;;;;;-144.30;45.36;84315.16;5051825;28;20196;-64
2023/10/02 05:39:31;;;;;;;10.77;9.57;;;;;;;-144.30;46.05;84382.72;5039549;28;20203;-64
2023/10/02 05:42:05;;;;;;;21.38;13.57;;;;;;;-144.30;45.46;84339.00;5031920;28;20691;-65
2023/10/02 05:44:33;;;;;;;23.73;16.60;;;;;;;-144.30;45.63;84368.81;5031833;28;20307;-64
2023/10/02 05:47:06;;;;;;;10.38;9.02;;;;;;;-144.30;45.46;84350.94;5031822;28;20228;-64
2023/10/02 05:49:33;;;;;;;16.10;12.43;;;;;;;-144.30;44.94;84323.13;5031579;28;20339;-63
2023/10/02 05:52:02;;;;;;;18.88;9.43;;;;;;;-144.30;43.38;84223.75;5031488;28;20204;-63
2023/10/02 05:54:35;;;;;;;12.77;9.57;;;;;;;-144.30;41.66;84106.50;5031298;28;20236;-65
2023/10/02 05:57:13;;;;;;;11.23;9.27;;;;;;;-144.30;41.10;84046.88;5031600;28;20201;-66
2023/10/02 05:59:48;;;;;;;17.70;10.13;;;;;;;-144.30;39.77;83885.94;5038705;28;20196;-65
2023/10/02 06:02:18;;;;;;;8.50;7.55;;;;;;;-144.30;37.57;83673.31;5050456;28;20208;-64
2023/10/02 06:04:47;;;;;;;22.08;9.48;;;;;;;-144.30;36.14;83619.66;5050569;28;20232;-64
2023/10/02 06:07:40;;;;;;;9.52;8.57;;;;;;;-144.30;35.81;83568.00;5050642;28;20192;-64
2023/10/02 06:10:08;;;;;;;9.40;7.80;;;;;;;-144.30;36.07;83726.97;5050436;28;20196;-64
2023/10/02 06:12:35;;;;;;;9.70;6.90;;;;;;;-144.30;36.75;83774.66;5050856;28;20243;-65
2023/10/02 06:15:09;;;;;;;18.00;7.97;;;;;;;-144.30;37.02;83874.00;5046150;28;20219;-64
2023/10/02 06:17:36;;;;;;;10.95;8.40;;;;;;;-144.30;37.21;83864.06;5030446;28;20205;-64
2023/10/02 06:20:17;;;;;;;13.23;7.05;;;;;;;-144.30;37.56;83963.44;5041988;28;20200;-64
2023/10/02 06:22:47;;;;;;;9.35;6.90;;;;;;;-144.30;38.13;83965.41;5050318;28;20239;-64
2023/10/02 06:25:18;;;;;;;16.27;8.32;;;;;;;-144.30;37.72;83921.69;5039095;28;20685;-65
2023/10/02 06:27:47;;;;;;;14.90;6.47;;;;;;;-144.30;36.65;83778.63;5030433;28;20589;-66
2023/10/02 06:30:16;;;;;;;9.93;6.50;;;;;;;-144.30;34.86;83579.94;5030438;28;20704;-66
2023/10/02 06:32:52;;;;;;;9.43;6.70;;;;;;;-144.30;33.62;83401.13;5030307;28;20205;-65
2023/10/02 06:35:21;;;;;;;8.70;6.40;;;;;;;-144.30;31.95;83156.75;5030124;28;20292;-66
2023/10/02 06:37:49;;;;;;;8.25;7.38;;;;;;;-144.30;31.00;83001.78;5047917;28;20240;-65
2023/10/02 06:40:20;;;;;;;13.23;6.57;;;;;;;-144.30;29.97;82769.38;5050108;28;20230;-63
2023/10/02 06:42:51;;;;;;;8.57;5.93;;;;;;;-144.30;29.72;82701.84;5049965;28;20196;-63
2023/10/02 06:45:20;;;;;;;10.70;6.43;;;;;;;-144.30;29.65;82767.38;5049808;28;20734;-66
2023/10/02 06:47:49;;;;;;;7.93;6.28;;;;;;;-144.30;29.82;82844.88;5049751;28;20192;-63
2023/10/02 06:50:27;;;;;;;14.88;6.57;;;;;;;-144.30;29.17;82815.06;5049837;28;20196;-65
2023/10/02 06:52:55;;;;;;;17.58;6.68;;;;;;;-144.30;29.24;82745.53;5049432;28;20200;-64
2023/10/02 06:55:24;;;;;;;10.50;6.70;;;;;;;-144.30;28.80;82614.44;5049726;28;20197;-66
2023/10/02 06:57:52;;;;;;;14.13;6.32;;;;;;;-144.30;27.66;82382.03;5041897;28;20594;-63
2023/10/02 07:00:19;;;;;;;11.20;6.78;;;;;;;-144.30;27.58;82256.91;5042548;28;20222;-65
2023/10/02 07:02:56;;;;;;;7.30;6.35;;;;;;;-144.30;27.00;82268.84;5041324;28;20205;-65
2023/10/02 07:05:27;;;;;;;9.82;6.22;;;;;;;-144.30;26.75;82175.50;5043619;28;20224;-65
2023/10/02 07:08:01;;;;;;;9.00;5.93;;;;;;;-144.30;26.45;81966.94;5036560;28;20216;-65
2023/10/02 07:10:29;;;;;;;7.13;6.35;;;;;;;-144.30;26.59;82211.25;5038125;28;20197;-64
2023/10/02 07:12:57;;;;;;;8.23;6.63;;;;;;;-144.30;26.95;82221.16;5038776;28;20247;-64
2023/10/02 07:15:26;;;;;;;7.53;5.82;;;;;;;-144.30;28.00;82584.66;5039428;28;20259;-64
2023/10/02 07:18:00;;;;;;;9.48;6.60;;;;;;;-144.30;28.54;82785.28;5044564;28;20300;-63
2023/10/02 07:20:42;;;;;;;11.15;6.57;;;;;;;-144.30;30.16;83194.50;5044291;28;20218;-63
2023/10/02 07:23:15;;;;;;;8.50;5.88;;;;;;;-144.30;30.90;83291.84;5037757;28;20691;-63
2023/10/02 07:25:50;;;;;;;8.32;6.30;;;;;;;-144.30;31.51;83411.06;5037530;28;20244;-64
2023/10/02 07:28:17;;;;;;;9.65;6.50;;;;;;;-144.30;32.55;83544.16;5037128;28;20200;-63
2023/10/02 07:30:46;;;;;;;10.30;6.45;;;;;;;-144.30;33.53;83736.91;5047986;28;20201;-63
2023/10/02 07:33:14;;;;;;;13.63;7.38;;;;;;;-144.30;34.06;83854.13;5049534;28;20205;-65
2023/10/02 07:35:52;;;;;;;8.70;6.28;;;;;;;-144.30;34.69;83879.97;5049331;28;20287;-63
2023/10/02 07:38:21;;;;;;;9.38;6.53;;;;;;;-144.30;34.72;83921.69;5049131;28;20207;-62
2023/10/02 07:40:49;;;;;;;10.73;6.65;;;;;;;-144.30;35.34;83955.47;5049311;28;20200;-62
2023/10/02 07:43:16;;;;;;;13.15;8.30;;;;;;;-144.30;35.25;83977.34;5048932;28;20196;-63
2023/10/02 07:45:44;;;;;;;17.58;7.32;;;;;;;-144.30;35.49;83953.50;5049021;28;20278;-64
2023/10/02 07:48:12;;;;;;;11.55;6.53;;;;;;;-144.30;35.20;83981.31;5049007;28;20192;-63
2023/10/02 07:50:41;;;;;;;24.15;6.00;;;;;;;-144.30;34.89;83935.59;5049292;28;20692;-62
2023/10/02 07:53:09;;;;;;;17.83;7.30;;;;;;;-144.30;34.92;83889.91;5049120;28;20236;-63
2023/10/02 07:55:42;;;;;;;14.93;7.50;;;;;;;-144.30;34.78;83905.81;5048977;28;20200;-63
2023/10/02 07:58:09;;;;;;;12.85;7.22;;;;;;;-144.30;35.00;83989.25;5049154;28;20196;-63
2023/10/02 08:00:40;;;;;;;11.95;6.95;;;;;;;-144.30;35.13;83995.22;5048952;28;20587;-64
2023/10/02 08:05:57;;;;;;;10.18;5.70;;;;;;;-144.30;34.50;83929.66;5052069;28;20355;-64
2023/10/02 08:22:23;;;;;;;13.65;7.38;;;;;;;-144.30;34.84;84001.19;5087398;28;20559;-55
2023/10/02 08:24:50;;;;;;;9.95;7.95;;;;;;;-144.30;35.06;84038.94;5086025;28;20234;-56
2023/10/02 08:27:16;;;;;;;12.73;7.57;;;;;;;-144.30;35.35;84015.09;5088474;28;20234;-55
2023/10/02 08:29:44;;;;;;;13.23;7.20;;;;;;;-144.30;35.29;84064.78;5085127;28;20203;-55
2023/10/02 08:32:11;;;;;;;12.73;6.25;;;;;;;-144.30;35.20;84064.78;5085910;28;20226;-56
2023/10/02 08:34:38;;;;;;;13.52;6.00;;;;;;;-144.30;35.25;84042.91;5086827;28;20201;-56
2023/10/02 08:37:08;;;;;;;11.68;6.90;;;;;;;-144.30;35.17;84052.84;5086915;28;20564;-56
2023/10/02 08:39:37;;;;;;;16.33;6.40;;;;;;;-144.30;35.22;84056.81;5097095;28;20222;-56
2023/10/02 08:42:08;;;;;;;8.90;6.07;;;;;;;-144.30;35.09;84017.06;5106935;28;20747;-56
2023/10/02 08:44:38;;;;;;;10.02;7.07;;;;;;;-144.30;35.26;84005.16;5106864;28;20205;-56
2023/10/02 08:47:06;;;;;;;9.32;6.40;;;;;;;-144.30;35.27;84068.75;5106711;28;20252;-56
2023/10/02 08:49:34;;;;;;;9.13;5.50;;;;;;;-144.30;35.02;83993.22;5106822;28;20289;-56
2023/10/02 08:52:03;;;;;;;7.25;5.88;;;;;;;-144.30;35.11;84009.13;5106865;28;20213;-56
2023/10/02 08:54:31;;;;;;;9.65;6.38;;;;;;;-144.30;34.76;83981.31;5106918;28;20195;-56
2023/10/02 08:57:09;;;;;;;11.43;6.60;;;;;;;-144.30;34.96;84009.13;5106755;28;20202;-55
2023/10/02 08:59:38;;;;;;;10.25;6.38;;;;;;;-144.30;34.78;83973.38;5106906;28;20195;-56
2023/10/02 09:02:13;;;;;;;7.63;6.45;;;;;;;-144.30;34.50;83935.59;5106458;28;20194;-56
2023/10/02 09:04:41;;;;;;;9.45;6.20;;;;;;;-144.30;34.79;83969.38;5106535;28;20209;-57
2023/10/02 09:07:23;;;;;;;8.18;6.95;;;;;;;-144.30;34.86;84009.13;5106318;28;20198;-55
2023/10/02 09:10:12;;;;;;;10.70;6.97;;;;;;;-144.30;34.58;83999.19;5106207;28;20285;-56
2023/10/02 09:12:48;;;;;;;10.43;6.22;;;;;;;-144.30;34.37;83959.44;5094107;28;20716;-64
2023/10/02 09:15:26;;;;;;;18.15;7.18;;;;;;;-144.30;34.06;83967.41;5096766;28;20186;-64
2023/10/02 09:17:57;;;;;;;8.95;6.88;;;;;;;-144.30;34.00;83933.63;5096435;28;20684;-64
2023/10/02 09:20:38;;;;;;;9.98;7.38;;;;;;;-144.30;33.97;83901.81;5093037;28;20300;-65
2023/10/02 09:23:09;;;;;;;11.40;7.03;;;;;;;-144.30;33.85;83915.75;5082812;28;20275;-65
2023/10/02 09:25:37;;;;;;;14.25;8.27;;;;;;;-144.30;33.76;83941.56;5080956;28;20669;-64
2023/10/02 09:28:13;;;;;;;9.88;6.35;;;;;;;-144.30;33.65;83941.56;5082076;28;20206;-64
2023/10/02 09:30:41;;;;;;;9.32;6.25;;;;;;;-144.30;33.58;83915.75;5082674;28;20272;-64
2023/10/02 09:33:14;;;;;;;13.50;6.43;;;;;;;-144.30;33.48;83949.50;5082258;28;20256;-64
2023/10/02 09:35:43;;;;;;;13.52;8.50;;;;;;;-144.30;33.69;83870.03;5078721;28;20192;-64
2023/10/02 09:38:12;;;;;;;14.93;7.75;;;;;;;-144.30;33.60;83905.81;5081112;28;20196;-64
2023/10/02 09:40:58;;;;;;;11.90;9.23;;;;;;;-144.30;33.68;83895.88;5082633;28;20656;-64
2023/10/02 09:43:28;;;;;;;16.92;8.00;;;;;;;-144.30;33.52;83818.38;5079466;28;20353;-64
2023/10/02 09:45:58;;;;;;;9.73;6.40;;;;;;;-144.30;33.13;83917.72;5080890;28;20670;-64
2023/10/02 09:48:53;;;;;;;13.02;7.35;;;;;;;-144.30;33.48;83911.75;5076284;28;20207;-63
2023/10/02 09:51:37;;;;;;;11.25;6.82;;;;;;;-144.30;33.29;83866.06;5071675;28;20307;-64
2023/10/02 09:54:17;;;;;;;16.63;8.32;;;;;;;-144.30;33.21;83874.00;5072096;28;20199;-64
2023/10/02 09:57:04;;;;;;;14.77;10.13;;;;;;;-144.30;32.98;83842.22;5071656;28;20290;-64
2023/10/02 09:59:38;;;;;;;10.50;9.38;;;;;;;-144.30;33.17;83887.91;5072099;28;20203;-64
2023/10/02 10:10:48;;;;;;;16.33;8.13;;;;;;;-144.30;33.29;83889.91;5081894;28;20253;-58
2023/10/02 10:13:26;;;;;;;16.20;9.02;;;;;;;-144.30;33.07;83885.94;5080890;28;20184;-56
2023/10/02 10:16:29;;;;;;;27.88;15.88;;;;;;;-144.30;33.06;83854.13;5078488;28;20583;-56
2023/10/02 10:19:32;;;;;;;32.85;21.25;;;;;;;-144.30;33.41;83891.88;5079240;28;20287;-56
2023/10/02 10:21:58;;;;;;;13.40;8.27;;;;;;;-144.30;32.15;83756.78;5078852;28;20742;-57
2023/10/02 10:25:22;;;;;;;9.73;8.30;;;;;;;-144.30;31.76;83834.25;5066427;28;20288;-56
2023/10/02 10:28:04;;;;;;;21.95;12.38;;;;;;;-144.30;32.73;84034.97;5076396;28;20199;-64
2023/10/02 10:30:38;;;;;;;13.95;9.23;;;;;;;-144.30;32.52;83848.19;5073697;28;20246;-64
2023/10/02 10:33:40;;;;;;;11.52;7.78;;;;;;;-144.30;32.39;83818.38;5081069;28;20218;-63
2023/10/02 10:36:35;;;;;;;13.93;8.35;;;;;;;-144.30;32.52;83788.56;5091107;28;20202;-55
2023/10/02 10:39:30;;;;;;;13.43;9.35;;;;;;;-144.30;32.77;83834.25;5077956;28;20199;-63
2023/10/02 10:42:00;;;;;;;12.07;10.60;;;;;;;-144.30;32.28;83854.13;5090872;28;20214;-57
2023/10/02 10:44:36;;;;;;;12.90;8.38;;;;;;;-144.30;32.38;83850.16;5091081;28;20230;-57
2023/10/02 10:47:04;;;;;;;12.93;8.70;;;;;;;-144.30;32.33;83877.97;5091100;28;20301;-57
2023/10/02 10:50:11;;;;;;;12.32;7.53;;;;;;;-144.30;32.00;84307.22;5073280;28;20600;-57
2023/10/02 10:52:44;;;;;;;24.92;16.48;;;;;;;-144.30;32.03;83798.50;5064622;28;20207;-55
2023/10/02 10:55:33;;;;;;;16.15;9.07;;;;;;;-144.30;31.21;83764.72;5076659;28;20200;-64
2023/10/02 10:58:03;;;;;;;9.80;7.53;;;;;;;-144.30;31.29;83800.50;5080246;28;20702;-56
2023/10/02 11:00:39;;;;;;;9.85;6.97;;;;;;;-144.30;31.00;83836.25;5080223;28;20192;-56
2023/10/02 11:03:11;;;;;;;12.90;6.72;;;;;;;-144.30;30.74;83832.28;5080603;28;20194;-63
2023/10/02 11:05:39;;;;;;;9.18;6.70;;;;;;;-144.30;30.70;83810.41;5090644;28;20195;-63
2023/10/02 11:08:28;;;;;;;11.98;9.13;;;;;;;-144.30;30.72;83846.19;5090475;28;20290;-64
2023/10/02 11:11:19;;;;;;;11.60;8.93;;;;;;;-144.30;30.64;83830.28;5090602;28;20302;-64
2023/10/02 11:13:54;;;;;;;10.10;7.03;;;;;;;-144.30;30.42;83836.25;5090492;28;20690;-56
2023/10/02 11:16:34;;;;;;;8.00;6.65;;;;;;;-144.30;30.27;83826.31;5090281;28;20237;-56
2023/10/02 11:19:14;;;;;;;13.07;7.03;;;;;;;-144.30;30.68;83854.13;5090108;28;20207;-64
2023/10/02 11:21:47;;;;;;;13.75;7.82;;;;;;;-144.30;30.86;83868.03;5090052;28;20619;-66
2023/10/02 11:24:23;;;;;;;10.10;7.38;;;;;;;-144.30;31.10;83772.66;5090272;28;20578;-65
2023/10/02 11:26:53;;;;;;;15.75;8.45;;;;;;;-144.30;31.32;83846.19;5086959;28;20583;-63
2023/10/02 11:29:21;;;;;;;14.98;7.70;;;;;;;-144.30;31.14;83858.09;5080466;28;20617;-64
2023/10/02 11:32:19;;;;;;;8.52;6.78;;;;;;;-144.30;31.12;83877.97;5079005;28;20281;-64
2023/10/02 11:34:46;;;;;;;13.35;7.95;;;;;;;-144.30;31.06;83876.00;5080013;28;20587;-64
2023/10/02 11:37:13;;;;;;;8.70;6.97;;;;;;;-144.30;30.88;83856.13;5079563;28;20196;-64
2023/10/02 11:39:43;;;;;;;14.45;7.13;;;;;;;-144.30;31.06;83824.31;5086934;28;20195;-57
2023/10/02 11:42:09;;;;;;;7.25;6.53;;;;;;;-144.30;31.86;83854.13;5090088;28;20206;-56
2023/10/02 11:44:39;;;;;;;11.75;8.35;;;;;;;-144.30;32.22;83842.22;5089479;28;20202;-55
2023/10/02 11:47:09;;;;;;;9.35;7.35;;;;;;;-144.30;32.22;83858.09;5089773;28;20197;-55
2023/10/02 11:49:37;;;;;;;14.02;8.43;;;;;;;-144.30;31.00;83858.09;5079794;28;20195;-56
2023/10/02 11:52:04;;;;;;;12.35;7.30;;;;;;;-144.30;31.06;83874.00;5079008;28;20682;-55
2023/10/02 11:54:35;;;;;;;10.95;7.57;;;;;;;-144.30;31.18;83889.91;5078345;28;20226;-55
2023/10/02 11:57:08;;;;;;;13.65;8.70;;;;;;;-144.30;31.31;83848.19;5076743;28;20207;-55
2023/10/02 11:59:36;;;;;;;15.95;8.07;;;;;;;-144.30;31.58;83856.13;5077733;28;20254;-55
2023/10/02 12:02:03;;;;;;;15.45;7.35;;;;;;;-144.30;30.91;83864.06;5079161;28;20575;-62
2023/10/02 12:04:31;;;;;;;14.02;8.57;;;;;;;-144.30;31.15;83887.91;5079819;28;20196;-62
2023/10/02 12:06:58;;;;;;;11.27;7.65;;;;;;;-144.30;31.02;83874.00;5075143;28;20203;-62
2023/10/02 12:09:27;;;;;;;8.77;7.65;;;;;;;-144.30;31.18;83876.00;5083569;28;20284;-62
2023/10/02 12:11:54;;;;;;;8.65;7.53;;;;;;;-144.30;30.19;83885.94;5089401;28;20316;-61
2023/10/02 12:14:23;;;;;;;10.10;7.32;;;;;;;-144.30;29.89;83848.19;5089477;28;20276;-61
2023/10/02 12:16:50;;;;;;;9.70;6.95;;;;;;;-144.30;29.67;83864.06;5089518;28;20203;-62